createdAt,value
2018-09-27T00:00:34.629Z,1014.4
2018-09-27T00:01:35.351Z,1014.4
2018-09-27T00:02:36.108Z,1014.4
2018-09-27T00:03:36.855Z,1014.4
2018-09-27T00:04:37.635Z,1014.4
2018-09-27T00:05:38.839Z,1014.4
2018-09-27T00:06:39.859Z,1014.4
2018-09-27T00:07:40.836Z,1014.4
2018-09-27T00:08:42.431Z,1014.3
2018-09-27T00:09:43.228Z,1014.3
2018-09-27T00:10:44.041Z,1014.3
2018-09-27T00:11:45.241Z,1014.3
2018-09-27T00:12:46.409Z,1014.2
2018-09-27T00:13:47.173Z,1014.3
2018-09-27T00:14:48.048Z,1014.3
2018-09-27T00:15:48.945Z,1014.3
2018-09-27T00:16:49.944Z,1014.3
2018-09-27T00:17:50.703Z,1014.3
2018-09-27T00:18:51.509Z,1014.3
2018-09-27T00:19:52.653Z,1014.3
2018-09-27T00:20:53.537Z,1014.3
2018-09-27T00:21:54.741Z,1014.3
2018-09-27T00:22:55.535Z,1014.3
2018-09-27T00:23:56.366Z,1014.3
2018-09-27T00:24:57.449Z,1014.2
2018-09-27T00:25:58.238Z,1014.3
2018-09-27T00:26:59.854Z,1014.2
2018-09-27T00:28:00.595Z,1014.2
2018-09-27T00:29:01.677Z,1014.2
2018-09-27T00:30:02.529Z,1014.2
2018-09-27T00:31:03.768Z,1014.2
2018-09-27T00:32:04.529Z,1014.2
2018-09-27T00:33:05.691Z,1014.2
2018-09-27T00:34:06.443Z,1014.2
2018-09-27T00:35:07.359Z,1014.2
2018-09-27T00:36:08.110Z,1014.2
2018-09-27T00:37:08.967Z,1014.1
2018-09-27T00:38:09.817Z,1014.1
2018-09-27T00:39:10.639Z,1014.0
2018-09-27T00:40:11.706Z,1014.0
2018-09-27T00:41:12.688Z,1014.0
2018-09-27T00:42:13.406Z,1014.1
2018-09-27T00:43:14.379Z,1014.0
2018-09-27T00:44:15.118Z,1014.1
2018-09-27T00:45:16.143Z,1014.1
2018-09-27T00:46:16.895Z,1014.1
2018-09-27T00:47:17.638Z,1014.1
2018-09-27T00:48:18.366Z,1014.1
2018-09-27T00:49:19.083Z,1014.0
2018-09-27T00:50:19.858Z,1014.0
2018-09-27T00:51:20.590Z,1014.0
2018-09-27T00:52:21.324Z,1014.0
2018-09-27T00:53:22.061Z,1014.0
2018-09-27T00:54:22.794Z,1014.0
2018-09-27T00:55:23.515Z,1014.1
2018-09-27T00:56:24.236Z,1014.1
2018-09-27T00:57:24.971Z,1014.1
2018-09-27T00:58:25.694Z,1014.0
2018-09-27T00:59:26.690Z,1014.0
2018-09-27T01:00:27.705Z,1014.0
2018-09-27T01:01:28.418Z,1014.0
2018-09-27T01:02:29.140Z,1014.0
2018-09-27T01:03:30.121Z,1014.0
2018-09-27T01:04:30.852Z,1014.0
2018-09-27T01:05:31.702Z,1014.0
2018-09-27T01:06:32.425Z,1014.0
2018-09-27T01:07:33.161Z,1014.0
2018-09-27T01:08:33.887Z,1014.0
2018-09-27T01:09:34.610Z,1014.0
2018-09-27T01:10:35.614Z,1014.0
2018-09-27T01:11:36.381Z,1014.0
2018-09-27T01:12:37.111Z,1014.0
2018-09-27T01:13:37.850Z,1014.0
2018-09-27T01:14:39.178Z,1014.0
2018-09-27T01:15:39.955Z,1014.0
2018-09-27T01:16:41.207Z,1014.0
2018-09-27T01:17:41.934Z,1013.9
2018-09-27T01:18:42.694Z,1013.9
2018-09-27T01:19:43.672Z,1013.9
2018-09-27T01:20:44.385Z,1014.0
2018-09-27T01:21:45.393Z,1013.9
2018-09-27T01:22:46.256Z,1013.9
2018-09-27T01:23:46.990Z,1013.9
2018-09-27T01:24:48.045Z,1013.9
2018-09-27T01:25:48.772Z,1013.9
2018-09-27T01:26:49.924Z,1013.9
2018-09-27T01:27:50.652Z,1013.9
2018-09-27T01:28:51.365Z,1013.9
2018-09-27T01:29:52.445Z,1013.9
2018-09-27T01:30:53.181Z,1013.9
2018-09-27T01:31:54.276Z,1013.8
2018-09-27T01:32:55.008Z,1013.9
2018-09-27T01:33:55.736Z,1013.8
2018-09-27T01:34:56.456Z,1013.8
2018-09-27T01:35:57.191Z,1013.8
2018-09-27T01:36:58.226Z,1013.8
2018-09-27T01:37:59.212Z,1013.8
2018-09-27T01:38:59.954Z,1013.8
2018-09-27T01:40:00.675Z,1013.8
2018-09-27T01:41:01.414Z,1013.8
2018-09-27T01:42:02.141Z,1013.8
2018-09-27T01:43:02.852Z,1013.8
2018-09-27T01:44:03.662Z,1013.8
2018-09-27T01:45:04.388Z,1013.8
2018-09-27T01:46:05.129Z,1013.8
2018-09-27T01:47:05.930Z,1013.8
2018-09-27T01:48:06.577Z,1013.7
2018-09-27T01:49:07.312Z,1013.8
2018-09-27T01:50:08.146Z,1013.8
2018-09-27T01:51:08.870Z,1013.7
2018-09-27T01:52:09.669Z,1013.8
2018-09-27T01:53:10.382Z,1013.8
2018-09-27T01:54:11.101Z,1013.8
2018-09-27T01:55:11.842Z,1013.8
2018-09-27T01:56:12.550Z,1013.7
2018-09-27T01:57:13.513Z,1013.8
2018-09-27T01:58:14.516Z,1013.7
2018-09-27T01:59:15.275Z,1013.8
2018-09-27T02:00:16.254Z,1013.8
2018-09-27T02:01:16.964Z,1013.8
2018-09-27T02:02:17.684Z,1013.8
2018-09-27T02:03:18.397Z,1013.8
2018-09-27T02:04:19.179Z,1013.8
2018-09-27T02:05:19.903Z,1013.7
2018-09-27T02:06:20.620Z,1013.8
2018-09-27T02:07:21.382Z,1013.8
2018-09-27T02:08:22.109Z,1013.7
2018-09-27T02:09:22.881Z,1013.8
2018-09-27T02:10:23.889Z,1013.8
2018-09-27T02:11:24.864Z,1013.8
2018-09-27T02:12:25.589Z,1013.7
2018-09-27T02:13:26.312Z,1013.7
2018-09-27T02:14:27.079Z,1013.7
2018-09-27T02:15:27.799Z,1013.7
2018-09-27T02:16:28.533Z,1013.7
2018-09-27T02:17:29.263Z,1013.7
2018-09-27T02:18:30.283Z,1013.7
2018-09-27T02:19:31.055Z,1013.7
2018-09-27T02:20:31.778Z,1013.7
2018-09-27T02:21:32.753Z,1013.7
2018-09-27T02:22:33.479Z,1013.7
2018-09-27T02:23:34.239Z,1013.7
2018-09-27T02:24:35.269Z,1013.7
2018-09-27T02:25:35.981Z,1013.7
2018-09-27T02:26:36.713Z,1013.7
2018-09-27T02:27:37.726Z,1013.7
2018-09-27T02:28:38.500Z,1013.7
2018-09-27T02:29:39.267Z,1013.7
2018-09-27T02:30:40.237Z,1013.7
2018-09-27T02:31:41.222Z,1013.6
2018-09-27T02:32:41.941Z,1013.6
2018-09-27T02:33:42.830Z,1013.6
2018-09-27T02:34:43.612Z,1013.6
2018-09-27T02:35:44.492Z,1013.6
2018-09-27T02:36:45.427Z,1013.6
2018-09-27T02:37:46.151Z,1013.5
2018-09-27T02:38:46.947Z,1013.5
2018-09-27T02:39:47.795Z,1013.5
2018-09-27T02:40:48.534Z,1013.5
2018-09-27T02:41:49.401Z,1013.5
2018-09-27T02:42:50.463Z,1013.5
2018-09-27T02:43:51.195Z,1013.5
2018-09-27T02:44:51.922Z,1013.5
2018-09-27T02:45:52.653Z,1013.5
2018-09-27T02:46:53.467Z,1013.5
2018-09-27T02:47:54.235Z,1013.5
2018-09-27T02:48:54.954Z,1013.5
2018-09-27T02:49:55.945Z,1013.5
2018-09-27T02:50:56.667Z,1013.6
2018-09-27T02:51:57.387Z,1013.5
2018-09-27T02:52:58.103Z,1013.5
2018-09-27T02:53:58.887Z,1013.5
2018-09-27T02:54:59.875Z,1013.5
2018-09-27T02:56:00.604Z,1013.5
2018-09-27T02:57:01.331Z,1013.5
2018-09-27T02:58:02.054Z,1013.4
2018-09-27T02:59:03.077Z,1013.5
2018-09-27T03:00:03.788Z,1013.5
2018-09-27T03:01:04.520Z,1013.4
2018-09-27T03:02:05.501Z,1013.5
2018-09-27T03:03:06.213Z,1013.5
2018-09-27T03:04:07.000Z,1013.4
2018-09-27T03:05:07.722Z,1013.4
2018-09-27T03:06:08.464Z,1013.4
2018-09-27T03:07:09.237Z,1013.4
2018-09-27T03:08:09.954Z,1013.4
2018-09-27T03:09:11.024Z,1013.4
2018-09-27T03:10:11.702Z,1013.4
2018-09-27T03:11:12.442Z,1013.4
2018-09-27T03:12:13.163Z,1013.4
2018-09-27T03:13:13.899Z,1013.4
2018-09-27T03:14:14.640Z,1013.3
2018-09-27T03:15:15.350Z,1013.3
2018-09-27T03:16:16.343Z,1013.3
2018-09-27T03:17:17.074Z,1013.4
2018-09-27T03:18:17.793Z,1013.3
2018-09-27T03:19:18.580Z,1013.3
2018-09-27T03:20:19.564Z,1013.3
2018-09-27T03:21:20.544Z,1013.3
2018-09-27T03:22:21.534Z,1013.3
2018-09-27T03:23:22.260Z,1013.3
2018-09-27T03:24:23.005Z,1013.3
2018-09-27T03:25:23.997Z,1013.2
2018-09-27T03:26:24.748Z,1013.2
2018-09-27T03:27:25.469Z,1013.3
2018-09-27T03:28:26.216Z,1013.2
2018-09-27T03:29:26.979Z,1013.2
2018-09-27T03:30:27.789Z,1013.2
2018-09-27T03:31:28.495Z,1013.2
2018-09-27T03:32:29.237Z,1013.2
2018-09-27T03:33:29.958Z,1013.2
2018-09-27T03:34:31.000Z,1013.1
2018-09-27T03:35:31.778Z,1013.1
2018-09-27T03:36:32.513Z,1013.2
2018-09-27T03:37:33.242Z,1013.2
2018-09-27T03:38:33.976Z,1013.1
2018-09-27T03:39:34.733Z,1013.2
2018-09-27T03:40:35.562Z,1013.2
2018-09-27T03:41:36.146Z,1013.2
2018-09-27T03:42:36.872Z,1013.2
2018-09-27T03:43:37.592Z,1013.2
2018-09-27T03:44:38.566Z,1013.2
2018-09-27T03:45:40.452Z,1013.2
2018-09-27T03:46:41.189Z,1013.2
2018-09-27T03:47:41.957Z,1013.2
2018-09-27T03:48:42.774Z,1013.2
2018-09-27T03:49:43.957Z,1013.2
2018-09-27T03:50:44.668Z,1013.2
2018-09-27T03:51:45.408Z,1013.2
2018-09-27T03:52:46.123Z,1013.2
2018-09-27T03:53:46.848Z,1013.2
2018-09-27T03:54:47.828Z,1013.1
2018-09-27T03:55:48.559Z,1013.1
2018-09-27T03:56:49.279Z,1013.1
2018-09-27T03:57:50.014Z,1013.1
2018-09-27T03:58:50.731Z,1013.0
2018-09-27T03:59:51.451Z,1013.0
2018-09-27T04:00:52.459Z,1013.1
2018-09-27T04:01:53.173Z,1013.1
2018-09-27T04:02:53.897Z,1013.0
2018-09-27T04:03:54.628Z,1013.0
2018-09-27T04:04:55.600Z,1013.0
2018-09-27T04:05:56.317Z,1013.1
2018-09-27T04:06:57.064Z,1013.1
2018-09-27T04:07:57.800Z,1013.0
2018-09-27T04:08:59.124Z,1013.0
2018-09-27T04:09:59.839Z,1013.0
2018-09-27T04:11:00.557Z,1013.0
2018-09-27T04:12:01.625Z,1013.0
2018-09-27T04:13:02.352Z,1013.0
2018-09-27T04:14:03.087Z,1013.0
2018-09-27T04:15:03.822Z,1013.0
2018-09-27T04:16:04.828Z,1013.0
2018-09-27T04:17:05.546Z,1013.0
2018-09-27T04:18:06.279Z,1013.0
2018-09-27T04:19:07.004Z,1013.0
2018-09-27T04:20:07.742Z,1013.0
2018-09-27T04:21:08.725Z,1013.0
2018-09-27T04:22:09.447Z,1012.9
2018-09-27T04:23:10.429Z,1012.9
2018-09-27T04:24:11.476Z,1013.0
2018-09-27T04:25:12.191Z,1012.9
2018-09-27T04:26:12.913Z,1012.9
2018-09-27T04:27:13.881Z,1012.9
2018-09-27T04:28:14.599Z,1012.9
2018-09-27T04:29:15.338Z,1012.9
2018-09-27T04:30:16.111Z,1012.9
2018-09-27T04:31:16.844Z,1012.9
2018-09-27T04:32:17.577Z,1012.9
2018-09-27T04:33:18.284Z,1012.9
2018-09-27T04:34:19.018Z,1012.9
2018-09-27T04:35:19.742Z,1012.9
2018-09-27T04:36:20.467Z,1013.0
2018-09-27T04:37:21.196Z,1013.0
2018-09-27T04:38:21.915Z,1013.0
2018-09-27T04:39:22.643Z,1013.0
2018-09-27T04:40:23.624Z,1013.0
2018-09-27T04:41:24.641Z,1013.0
2018-09-27T04:42:25.385Z,1013.0
2018-09-27T04:43:26.100Z,1013.0
2018-09-27T04:44:26.836Z,1013.0
2018-09-27T04:45:27.825Z,1013.0
2018-09-27T04:46:28.542Z,1013.1
2018-09-27T04:47:29.260Z,1013.1
2018-09-27T04:48:29.975Z,1013.1
2018-09-27T04:49:30.693Z,1013.1
2018-09-27T04:50:31.665Z,1013.1
2018-09-27T04:51:32.653Z,1013.1
2018-09-27T04:52:33.450Z,1013.1
2018-09-27T04:53:34.167Z,1013.1
2018-09-27T04:54:34.940Z,1013.0
2018-09-27T04:55:35.624Z,1013.0
2018-09-27T04:56:36.341Z,1013.1
2018-09-27T04:57:37.061Z,1013.1
2018-09-27T04:58:37.791Z,1013.1
2018-09-27T04:59:38.515Z,1013.1
2018-09-27T05:00:39.516Z,1013.1
2018-09-27T05:01:40.244Z,1013.1
2018-09-27T05:02:40.986Z,1013.1
2018-09-27T05:03:41.990Z,1013.1
2018-09-27T05:04:42.683Z,1013.1
2018-09-27T05:05:43.416Z,1013.1
2018-09-27T05:06:44.431Z,1013.1
2018-09-27T05:07:45.147Z,1013.1
2018-09-27T05:08:45.865Z,1013.1
2018-09-27T05:09:46.607Z,1013.1
2018-09-27T05:10:47.330Z,1013.0
2018-09-27T05:11:48.053Z,1013.0
2018-09-27T05:12:48.791Z,1013.0
2018-09-27T05:13:49.563Z,1013.0
2018-09-27T05:14:50.302Z,1013.0
2018-09-27T05:15:51.026Z,1013.0
2018-09-27T05:16:51.764Z,1013.0
2018-09-27T05:17:52.486Z,1013.0
2018-09-27T05:18:53.271Z,1013.0
2018-09-27T05:19:54.019Z,1013.0
2018-09-27T05:20:54.983Z,1013.0
2018-09-27T05:21:55.696Z,1013.0
2018-09-27T05:22:56.667Z,1013.0
2018-09-27T05:23:57.410Z,1013.0
2018-09-27T05:24:58.138Z,1013.0
2018-09-27T05:25:58.862Z,1013.0
2018-09-27T05:26:59.625Z,1013.0
2018-09-27T05:28:00.347Z,1013.0
2018-09-27T05:29:01.426Z,1013.0
2018-09-27T05:30:02.212Z,1013.0
2018-09-27T05:31:03.004Z,1013.0
2018-09-27T05:32:03.918Z,1013.0
2018-09-27T05:33:04.654Z,1013.0
2018-09-27T05:34:05.424Z,1012.9
2018-09-27T05:35:06.293Z,1013.0
2018-09-27T05:36:07.064Z,1012.9
2018-09-27T05:37:07.943Z,1012.9
2018-09-27T05:38:08.884Z,1012.9
2018-09-27T05:39:09.665Z,1012.9
2018-09-27T05:40:10.445Z,1012.9
2018-09-27T05:41:11.380Z,1012.9
2018-09-27T05:42:12.153Z,1012.9
2018-09-27T05:43:12.967Z,1012.9
2018-09-27T05:44:13.873Z,1012.9
2018-09-27T05:45:14.610Z,1012.9
2018-09-27T05:46:15.731Z,1012.9
2018-09-27T05:47:16.796Z,1012.9
2018-09-27T05:48:17.581Z,1012.9
2018-09-27T05:49:18.404Z,1012.9
2018-09-27T05:50:19.292Z,1012.9
2018-09-27T05:51:20.121Z,1012.9
2018-09-27T05:52:21.011Z,1012.9
2018-09-27T05:53:22.016Z,1012.9
2018-09-27T05:54:22.812Z,1012.8
2018-09-27T05:55:23.646Z,1012.8
2018-09-27T05:56:24.433Z,1012.8
2018-09-27T05:58:26.504Z,1012.8
2018-09-27T05:59:27.318Z,1012.9
2018-09-27T06:00:28.068Z,1012.9
2018-09-27T06:01:28.956Z,1012.9
2018-09-27T06:02:29.870Z,1012.9
2018-09-27T06:03:30.767Z,1012.9
2018-09-27T06:04:31.471Z,1012.9
2018-09-27T06:05:32.585Z,1012.9
2018-09-27T06:06:33.663Z,1012.9
2018-09-27T06:07:34.482Z,1012.9
2018-09-27T06:08:35.638Z,1012.9
2018-09-27T06:09:36.687Z,1012.9
2018-09-27T06:10:37.361Z,1012.9
2018-09-27T06:11:38.085Z,1012.9
2018-09-27T06:12:39.334Z,1012.9
2018-09-27T06:13:40.111Z,1012.9
2018-09-27T06:14:40.832Z,1012.9
2018-09-27T06:15:41.632Z,1012.9
2018-09-27T06:16:42.345Z,1012.9
2018-09-27T06:17:43.093Z,1013.0
2018-09-27T06:18:43.826Z,1012.9
2018-09-27T06:19:44.616Z,1012.9
2018-09-27T06:20:45.289Z,1012.9
2018-09-27T06:21:46.013Z,1013.0
2018-09-27T06:22:46.751Z,1012.9
2018-09-27T06:23:47.481Z,1012.9
2018-09-27T06:24:48.231Z,1013.0
2018-09-27T06:25:49.005Z,1013.0
2018-09-27T06:26:49.736Z,1013.0
2018-09-27T06:27:50.705Z,1013.0
2018-09-27T06:28:51.439Z,1013.0
2018-09-27T06:29:52.183Z,1013.0
2018-09-27T06:30:52.905Z,1013.0
2018-09-27T06:31:53.937Z,1013.0
2018-09-27T06:32:54.666Z,1013.0
2018-09-27T06:33:55.391Z,1013.0
2018-09-27T06:34:56.399Z,1013.0
2018-09-27T06:35:57.115Z,1013.0
2018-09-27T06:36:57.848Z,1013.0
2018-09-27T06:37:58.586Z,1013.0
2018-09-27T06:38:59.304Z,1013.0
2018-09-27T06:40:00.026Z,1013.0
2018-09-27T06:41:00.776Z,1013.0
2018-09-27T06:42:01.494Z,1013.0
2018-09-27T06:43:02.522Z,1013.0
2018-09-27T06:44:03.248Z,1013.0
2018-09-27T06:45:03.976Z,1013.0
2018-09-27T06:46:04.708Z,1013.0
2018-09-27T06:47:05.449Z,1013.0
2018-09-27T06:48:06.180Z,1013.1
2018-09-27T06:49:06.916Z,1013.0
2018-09-27T06:50:07.637Z,1013.0
2018-09-27T06:51:08.360Z,1013.0
2018-09-27T06:52:09.096Z,1013.1
2018-09-27T06:53:09.842Z,1013.1
2018-09-27T06:54:10.587Z,1013.1
2018-09-27T06:55:11.327Z,1013.1
2018-09-27T06:56:12.105Z,1013.0
2018-09-27T06:57:12.789Z,1013.0
2018-09-27T06:58:13.555Z,1013.0
2018-09-27T06:59:14.298Z,1013.0
2018-09-27T07:00:15.010Z,1013.0
2018-09-27T07:01:16.375Z,1013.0
2018-09-27T07:02:17.792Z,1013.0
2018-09-27T07:03:18.697Z,1013.0
2018-09-27T07:04:19.435Z,1013.0
2018-09-27T07:06:35.969Z,1013.0
2018-09-27T07:07:36.699Z,1013.0
2018-09-27T07:08:37.494Z,1013.0
2018-09-27T07:09:38.163Z,1013.0
2018-09-27T07:10:38.885Z,1013.0
2018-09-27T07:11:39.606Z,1012.9
2018-09-27T07:12:40.374Z,1013.0
2018-09-27T07:13:41.129Z,1013.0
2018-09-27T07:14:41.905Z,1012.9
2018-09-27T07:15:42.649Z,1012.9
2018-09-27T07:16:43.317Z,1012.9
2018-09-27T07:17:44.090Z,1013.0
2018-09-27T07:18:44.933Z,1013.0
2018-09-27T07:19:45.630Z,1013.0
2018-09-27T07:20:46.429Z,1013.0
2018-09-27T07:21:47.174Z,1013.0
2018-09-27T07:22:47.890Z,1013.0
2018-09-27T07:23:48.917Z,1013.0
2018-09-27T07:24:49.701Z,1013.0
2018-09-27T07:25:50.478Z,1013.0
2018-09-27T07:26:51.503Z,1013.0
2018-09-27T07:27:52.190Z,1013.0
2018-09-27T07:28:52.920Z,1013.0
2018-09-27T07:29:54.163Z,1013.0
2018-09-27T07:30:54.884Z,1013.1
2018-09-27T07:31:55.616Z,1013.0
2018-09-27T07:32:56.333Z,1013.0
2018-09-27T07:33:57.096Z,1013.0
2018-09-27T07:34:58.347Z,1013.1
2018-09-27T07:35:59.070Z,1013.1
2018-09-27T07:37:00.190Z,1013.0
2018-09-27T07:38:00.920Z,1013.1
2018-09-27T07:39:01.745Z,1013.0
2018-09-27T07:40:02.463Z,1013.0
2018-09-27T07:41:03.515Z,1013.0
2018-09-27T07:42:04.250Z,1013.0
2018-09-27T07:43:05.244Z,1013.0
2018-09-27T07:44:05.973Z,1013.0
2018-09-27T07:45:06.701Z,1013.0
2018-09-27T07:46:07.444Z,1013.0
2018-09-27T07:47:08.239Z,1013.0
2018-09-27T07:48:08.980Z,1013.0
2018-09-27T07:49:09.706Z,1012.9
2018-09-27T07:50:10.428Z,1012.9
2018-09-27T07:51:11.400Z,1012.9
2018-09-27T07:52:12.440Z,1012.9
2018-09-27T07:53:13.206Z,1012.9
2018-09-27T07:54:14.181Z,1012.9
2018-09-27T07:55:15.034Z,1012.9
2018-09-27T07:56:15.765Z,1013.0
2018-09-27T07:57:16.988Z,1012.9
2018-09-27T07:58:17.723Z,1012.9
2018-09-27T07:59:18.477Z,1012.9
2018-09-27T08:00:19.730Z,1012.9
2018-09-27T08:01:20.469Z,1013.0
2018-09-27T08:02:21.203Z,1012.9
2018-09-27T08:03:22.202Z,1012.9
2018-09-27T08:04:22.994Z,1012.9
2018-09-27T08:05:23.674Z,1012.9
2018-09-27T08:06:24.398Z,1012.9
2018-09-27T08:07:25.123Z,1012.9
2018-09-27T08:08:25.886Z,1012.9
2018-09-27T08:09:26.592Z,1012.9
2018-09-27T08:10:27.442Z,1012.9
2018-09-27T08:11:28.244Z,1012.8
2018-09-27T08:12:28.914Z,1012.8
2018-09-27T08:13:29.628Z,1012.9
2018-09-27T08:14:30.400Z,1012.9
2018-09-27T08:15:31.113Z,1012.8
2018-09-27T08:16:31.854Z,1012.9
2018-09-27T08:17:32.585Z,1013.0
2018-09-27T08:18:33.314Z,1012.9
2018-09-27T08:19:34.041Z,1012.9
2018-09-27T08:20:34.901Z,1013.0
2018-09-27T08:21:35.506Z,1012.9
2018-09-27T08:22:36.484Z,1013.0
2018-09-27T08:23:37.219Z,1013.0
2018-09-27T08:24:38.205Z,1012.9
2018-09-27T08:25:38.934Z,1012.9
2018-09-27T08:26:39.752Z,1012.9
2018-09-27T08:27:40.411Z,1012.9
2018-09-27T08:28:41.158Z,1012.8
2018-09-27T08:30:24.647Z,1012.8
2018-09-27T08:31:25.366Z,1012.8
2018-09-27T08:32:26.119Z,1012.8
2018-09-27T08:33:27.080Z,1012.8
2018-09-27T08:34:27.803Z,1012.8
2018-09-27T08:35:28.805Z,1012.7
2018-09-27T08:36:29.528Z,1012.7
2018-09-27T08:37:30.287Z,1012.8
2018-09-27T08:38:31.035Z,1012.8
2018-09-27T08:39:31.802Z,1012.8
2018-09-27T08:40:32.546Z,1012.8
2018-09-27T08:41:33.552Z,1012.7
2018-09-27T08:42:34.284Z,1012.8
2018-09-27T08:43:35.000Z,1012.7
2018-09-27T08:44:35.839Z,1012.8
2018-09-27T08:45:36.585Z,1012.8
2018-09-27T08:46:37.491Z,1012.8
2018-09-27T08:47:38.235Z,1012.8
2018-09-27T08:48:39.007Z,1012.7
2018-09-27T08:49:39.761Z,1012.7
2018-09-27T08:50:40.520Z,1012.7
2018-09-27T08:51:42.056Z,1012.7
2018-09-27T08:52:42.746Z,1012.7
2018-09-27T08:53:43.487Z,1012.6
2018-09-27T08:54:44.220Z,1012.7
2018-09-27T08:55:45.072Z,1012.7
2018-09-27T08:56:45.709Z,1012.7
2018-09-27T08:57:46.444Z,1012.7
2018-09-27T08:58:47.521Z,1012.7
2018-09-27T08:59:48.569Z,1012.7
2018-09-27T09:00:49.299Z,1012.7
2018-09-27T09:01:50.053Z,1012.6
2018-09-27T09:02:50.801Z,1012.7
2018-09-27T09:03:51.587Z,1012.6
2018-09-27T09:04:52.287Z,1012.6
2018-09-27T09:05:53.010Z,1012.6
2018-09-27T09:06:53.766Z,1012.6
2018-09-27T09:07:54.550Z,1012.6
2018-09-27T09:08:55.964Z,1012.6
2018-09-27T09:09:57.004Z,1012.6
2018-09-27T09:10:57.760Z,1012.6
2018-09-27T09:11:58.569Z,1012.5
2018-09-27T09:12:59.279Z,1012.5
2018-09-27T09:14:00.022Z,1012.5
2018-09-27T09:15:01.042Z,1012.5
2018-09-27T09:16:01.780Z,1012.4
2018-09-27T09:17:02.532Z,1012.4
2018-09-27T09:18:03.284Z,1012.4
2018-09-27T09:19:04.073Z,1012.4
2018-09-27T09:21:20.312Z,1012.4
2018-09-27T09:22:21.055Z,1012.4
2018-09-27T09:23:21.829Z,1012.4
2018-09-27T09:24:22.806Z,1012.4
2018-09-27T09:25:23.530Z,1012.4
2018-09-27T09:26:24.271Z,1012.4
2018-09-27T09:27:25.038Z,1012.4
2018-09-27T09:28:25.842Z,1012.4
2018-09-27T09:29:26.637Z,1012.4
2018-09-27T09:30:27.642Z,1012.4
2018-09-27T09:31:28.412Z,1012.4
2018-09-27T09:32:29.152Z,1012.3
2018-09-27T09:33:29.959Z,1012.3
2018-09-27T09:34:30.890Z,1012.3
2018-09-27T09:35:31.939Z,1012.3
2018-09-27T09:36:32.651Z,1012.3
2018-09-27T09:37:33.749Z,1012.2
2018-09-27T09:38:34.753Z,1012.2
2018-09-27T09:39:35.485Z,1012.2
2018-09-27T09:40:36.806Z,1012.2
2018-09-27T09:41:37.618Z,1012.2
2018-09-27T09:42:38.359Z,1012.2
2018-09-27T09:43:39.107Z,1012.1
2018-09-27T09:44:39.840Z,1012.2
2018-09-27T09:45:40.835Z,1012.1
2018-09-27T09:46:41.946Z,1012.1
2018-09-27T09:47:42.898Z,1012.1
2018-09-27T09:48:43.746Z,1012.1
2018-09-27T09:49:44.494Z,1012.1
2018-09-27T09:50:45.300Z,1012.2
2018-09-27T09:51:46.122Z,1012.1
2018-09-27T09:52:46.873Z,1012.1
2018-09-27T09:53:47.645Z,1012.1
2018-09-27T09:54:48.380Z,1012.1
2018-09-27T09:55:49.122Z,1012.1
2018-09-27T09:56:49.850Z,1012.1
2018-09-27T09:57:50.876Z,1012.1
2018-09-27T09:58:51.860Z,1012.1
2018-09-27T09:59:52.706Z,1012.1
2018-09-27T10:00:54.242Z,1012.0
2018-09-27T10:01:54.967Z,1012.0
2018-09-27T10:02:56.009Z,1011.9
2018-09-27T10:03:56.984Z,1011.9
2018-09-27T10:04:57.722Z,1012.0
2018-09-27T10:05:58.469Z,1012.0
2018-09-27T10:06:59.286Z,1011.9
2018-09-27T10:08:00.023Z,1011.9
2018-09-27T10:09:00.831Z,1011.9
2018-09-27T10:10:01.487Z,1011.9
2018-09-27T10:11:02.218Z,1011.8
2018-09-27T10:12:02.962Z,1011.9
2018-09-27T10:13:03.733Z,1011.8
2018-09-27T10:14:04.476Z,1011.8
2018-09-27T10:15:05.467Z,1011.8
2018-09-27T10:16:06.228Z,1011.8
2018-09-27T10:17:06.947Z,1011.8
2018-09-27T10:18:07.686Z,1011.8
2018-09-27T10:19:08.427Z,1011.7
2018-09-27T10:20:09.684Z,1011.7
2018-09-27T10:21:10.406Z,1011.7
2018-09-27T10:22:11.211Z,1011.7
2018-09-27T10:23:12.154Z,1011.7
2018-09-27T10:24:12.886Z,1011.7
2018-09-27T10:25:13.630Z,1011.7
2018-09-27T10:26:14.367Z,1011.7
2018-09-27T10:27:15.095Z,1011.6
2018-09-27T10:28:15.846Z,1011.7
2018-09-27T10:29:16.645Z,1011.6
2018-09-27T10:30:17.388Z,1011.5
2018-09-27T10:31:18.155Z,1011.6
2018-09-27T10:32:18.881Z,1011.6
2018-09-27T10:33:19.621Z,1011.5
2018-09-27T10:34:20.720Z,1011.5
2018-09-27T10:35:21.393Z,1011.5
2018-09-27T10:36:22.132Z,1011.4
2018-09-27T10:37:23.156Z,1011.4
2018-09-27T10:38:23.935Z,1011.4
2018-09-27T10:39:24.761Z,1011.4
2018-09-27T10:40:25.501Z,1011.4
2018-09-27T10:41:26.232Z,1011.4
2018-09-27T10:42:26.967Z,1011.4
2018-09-27T10:43:27.941Z,1011.4
2018-09-27T10:44:28.686Z,1011.4
2018-09-27T10:45:29.417Z,1011.4
2018-09-27T10:46:30.155Z,1011.4
2018-09-27T10:47:30.903Z,1011.5
2018-09-27T10:48:31.635Z,1011.4
2018-09-27T10:49:32.368Z,1011.4
2018-09-27T10:50:33.118Z,1011.3
2018-09-27T10:51:33.906Z,1011.4
2018-09-27T10:52:34.646Z,1011.4
2018-09-27T10:53:35.667Z,1011.3
2018-09-27T10:54:36.400Z,1011.3
2018-09-27T10:55:37.149Z,1011.3
2018-09-27T10:56:37.892Z,1011.3
2018-09-27T10:57:38.628Z,1011.3
2018-09-27T10:58:39.361Z,1011.3
2018-09-27T10:59:40.136Z,1011.3
2018-09-27T11:00:40.871Z,1011.3
2018-09-27T11:01:41.624Z,1011.2
2018-09-27T11:02:42.352Z,1011.2
2018-09-27T11:03:43.070Z,1011.2
2018-09-27T11:04:43.856Z,1011.2
2018-09-27T11:05:44.669Z,1011.2
2018-09-27T11:06:45.368Z,1011.1
2018-09-27T11:07:46.344Z,1011.2
2018-09-27T11:08:47.082Z,1011.1
2018-09-27T11:09:47.887Z,1011.1
2018-09-27T11:10:48.699Z,1011.1
2018-09-27T11:11:49.389Z,1011.1
2018-09-27T11:12:50.180Z,1011.0
2018-09-27T11:13:50.914Z,1011.0
2018-09-27T11:14:51.658Z,1011.0
2018-09-27T11:15:52.405Z,1011.0
2018-09-27T11:16:53.161Z,1011.0
2018-09-27T11:17:53.909Z,1011.0
2018-09-27T11:18:54.667Z,1011.0
2018-09-27T11:19:55.680Z,1011.0
2018-09-27T11:20:56.406Z,1010.9
2018-09-27T11:21:57.168Z,1010.8
2018-09-27T11:22:57.903Z,1010.9
2018-09-27T11:23:58.635Z,1010.8
2018-09-27T11:24:59.374Z,1010.8
2018-09-27T11:26:00.387Z,1010.8
2018-09-27T11:27:01.148Z,1010.7
2018-09-27T11:28:01.931Z,1010.7
2018-09-27T11:29:02.793Z,1010.6
2018-09-27T11:30:03.415Z,1010.6
2018-09-27T11:31:04.164Z,1010.6
2018-09-27T11:32:04.926Z,1010.6
2018-09-27T11:33:05.941Z,1010.6
2018-09-27T11:34:06.628Z,1010.5
2018-09-27T11:35:07.612Z,1010.5
2018-09-27T11:36:08.359Z,1010.5
2018-09-27T11:37:09.077Z,1010.5
2018-09-27T11:38:09.813Z,1010.5
2018-09-27T11:39:10.553Z,1010.5
2018-09-27T11:40:11.307Z,1010.5
2018-09-27T11:41:12.062Z,1010.5
2018-09-27T11:42:13.946Z,1010.5
2018-09-27T11:43:15.072Z,1010.5
2018-09-27T11:44:15.943Z,1010.4
2018-09-27T11:45:17.050Z,1010.4
2018-09-27T11:46:17.776Z,1010.4
2018-09-27T11:47:18.518Z,1010.3
2018-09-27T11:48:19.556Z,1010.3
2018-09-27T11:49:20.344Z,1010.3
2018-09-27T11:50:21.227Z,1010.2
2018-09-27T11:51:21.833Z,1010.2
2018-09-27T11:52:22.580Z,1010.2
2018-09-27T11:53:23.563Z,1010.2
2018-09-27T11:54:24.293Z,1010.1
2018-09-27T11:55:25.035Z,1010.1
2018-09-27T11:56:26.296Z,1010.0
2018-09-27T11:57:27.254Z,1010.0
2018-09-27T11:58:27.998Z,1010.0
2018-09-27T11:59:28.780Z,1010.0
2018-09-27T12:00:29.803Z,1010.0
2018-09-27T12:01:30.554Z,1010.0
2018-09-27T12:02:31.285Z,1010.0
2018-09-27T12:03:32.333Z,1009.9
2018-09-27T12:04:33.059Z,1009.9
2018-09-27T12:05:33.812Z,1009.9
2018-09-27T12:06:34.666Z,1009.8
2018-09-27T12:07:35.438Z,1009.9
2018-09-27T12:08:36.072Z,1009.9
2018-09-27T12:09:36.823Z,1009.9
2018-09-27T12:10:37.548Z,1009.9
2018-09-27T12:11:38.893Z,1009.9
2018-09-27T12:12:39.981Z,1009.9
2018-09-27T12:13:40.728Z,1009.8
2018-09-27T12:14:41.789Z,1009.8
2018-09-27T12:15:42.762Z,1009.8
2018-09-27T12:16:43.916Z,1009.8
2018-09-27T12:17:44.745Z,1009.8
2018-09-27T12:18:45.403Z,1009.8
2018-09-27T12:19:46.233Z,1009.7
2018-09-27T12:20:46.905Z,1009.8
2018-09-27T12:21:47.970Z,1009.8
2018-09-27T12:22:48.708Z,1009.7
2018-09-27T12:23:49.767Z,1009.7
2018-09-27T12:24:50.815Z,1009.7
2018-09-27T12:25:51.546Z,1009.7
2018-09-27T12:26:52.550Z,1009.7
2018-09-27T12:27:53.585Z,1009.7
2018-09-27T12:28:54.338Z,1009.7
2018-09-27T12:29:55.332Z,1009.7
2018-09-27T12:30:56.343Z,1009.7
2018-09-27T12:31:57.076Z,1009.7
2018-09-27T12:32:59.004Z,1009.6
2018-09-27T12:34:00.163Z,1009.6
2018-09-27T12:35:00.917Z,1009.6
2018-09-27T12:36:01.666Z,1009.6
2018-09-27T12:37:02.420Z,1009.6
2018-09-27T12:38:03.505Z,1009.6
2018-09-27T12:39:04.668Z,1009.5
2018-09-27T12:40:05.434Z,1009.5
2018-09-27T12:41:06.169Z,1009.6
2018-09-27T12:42:07.028Z,1009.5
2018-09-27T12:43:07.653Z,1009.5